createdAt,value
2022-11-14T00:01:26.662Z,102504.44
2022-11-14T00:04:48.309Z,102507.28
2022-11-14T00:08:18.785Z,102500.16
2022-11-14T00:11:39.528Z,102501.75
2022-11-14T00:15:00.201Z,102491.91
2022-11-14T00:18:21.809Z,102494.03
2022-11-14T00:21:42.504Z,102505.16
2022-11-14T00:25:07.477Z,102502.13
2022-11-14T00:28:28.165Z,102495.59
2022-11-14T00:31:48.868Z,102488.91
2022-11-14T00:35:09.975Z,102492.09
2022-11-14T00:38:30.513Z,102506.59
2022-11-14T00:41:51.236Z,102493.78
2022-11-14T00:45:12.163Z,102491.78
2022-11-14T00:48:32.745Z,102502.06
2022-11-14T00:51:53.501Z,102499.72
2022-11-14T00:55:13.909Z,102503.19
2022-11-14T00:58:36.078Z,102491.59
2022-11-14T01:01:58.271Z,102463.72
2022-11-14T01:05:19.083Z,102459.28
2022-11-14T01:08:39.453Z,102483.63
2022-11-14T01:12:00.023Z,102480.53
2022-11-14T01:15:20.714Z,102479.50
2022-11-14T01:18:41.563Z,102469.97
2022-11-14T01:22:06.293Z,102488.19
2022-11-14T01:25:26.950Z,102471.94
2022-11-14T01:28:47.636Z,102481.34
2022-11-14T01:32:08.456Z,102473.69
2022-11-14T01:35:29.231Z,102492.03
2022-11-14T01:38:53.964Z,102470.53
2022-11-14T01:42:15.714Z,102473.81
2022-11-14T01:45:59.132Z,102476.38
2022-11-14T01:49:25.078Z,102461.97
2022-11-14T01:52:46.783Z,102461.16
2022-11-14T01:56:09.566Z,102480.78
2022-11-14T01:59:38.353Z,102484.19
2022-11-14T02:03:00.379Z,102466.38
2022-11-14T02:06:24.313Z,102459.69
2022-11-14T02:09:47.231Z,102480.34
2022-11-14T02:13:08.710Z,102473.66
2022-11-14T02:16:29.372Z,102454.00
2022-11-14T02:19:53.352Z,102463.94
2022-11-14T02:23:13.851Z,102448.16
2022-11-14T02:26:36.766Z,102473.38
2022-11-14T02:30:27.174Z,102469.94
2022-11-14T02:33:47.887Z,102456.28
2022-11-14T02:37:08.551Z,102465.41
2022-11-14T02:40:29.217Z,102459.53
2022-11-14T02:43:49.722Z,102449.97
2022-11-14T02:47:10.557Z,102459.66
2022-11-14T02:50:31.506Z,102436.75
2022-11-14T02:53:52.191Z,102436.75
2022-11-14T02:57:12.436Z,102451.72
2022-11-14T03:00:32.671Z,102453.56
2022-11-14T03:03:53.058Z,102443.03
2022-11-14T03:07:13.584Z,102458.53
2022-11-14T03:10:34.542Z,102440.03
2022-11-14T03:13:55.483Z,102440.91
2022-11-14T03:17:16.980Z,102426.09
2022-11-14T03:20:37.520Z,102424.63
2022-11-14T03:23:57.917Z,102436.16
2022-11-14T03:27:18.487Z,102438.84
2022-11-14T03:30:39.233Z,102439.97
2022-11-14T03:34:00.051Z,102431.56
2022-11-14T03:37:20.797Z,102439.97
2022-11-14T03:40:41.435Z,102438.81
2022-11-14T03:44:01.823Z,102424.03
2022-11-14T03:47:22.598Z,102431.59
2022-11-14T03:50:43.848Z,102438.56
2022-11-14T03:54:04.630Z,102425.59
2022-11-14T03:57:25.349Z,102423.16
2022-11-14T04:00:45.813Z,102396.69
2022-11-14T04:04:06.544Z,102418.03
2022-11-14T04:07:27.243Z,102423.44
2022-11-14T04:10:49.009Z,102424.28
2022-11-14T04:14:10.482Z,102425.56
2022-11-14T04:17:34.486Z,102425.81
2022-11-14T04:20:57.645Z,102416.00
2022-11-14T04:24:18.555Z,102401.88
2022-11-14T04:27:39.200Z,102392.63
2022-11-14T04:31:00.674Z,102418.16
2022-11-14T04:34:21.575Z,102402.38
2022-11-14T04:37:41.839Z,102399.09
2022-11-14T04:41:02.165Z,102415.13
2022-11-14T04:44:22.510Z,102404.59
2022-11-14T04:47:43.358Z,102413.03
2022-11-14T04:51:04.188Z,102410.91
2022-11-14T04:54:24.620Z,102415.78
2022-11-14T04:57:45.785Z,102431.22
2022-11-14T05:01:11.162Z,102422.53
2022-11-14T05:04:33.138Z,102407.56
2022-11-14T05:07:55.292Z,102423.25
2022-11-14T05:11:17.161Z,102430.00
2022-11-14T05:14:37.921Z,102420.69
2022-11-14T05:17:59.101Z,102389.09
2022-11-14T05:21:19.512Z,102413.41
2022-11-14T05:24:40.045Z,102416.13
2022-11-14T05:28:02.183Z,102400.91
2022-11-14T05:31:22.697Z,102382.59
2022-11-14T05:34:43.458Z,102413.75
2022-11-14T05:38:04.098Z,102411.00
2022-11-14T05:41:24.876Z,102390.56
2022-11-14T05:44:45.477Z,102406.84
2022-11-14T05:48:06.436Z,102407.91
2022-11-14T05:51:26.827Z,102419.00
2022-11-14T05:54:47.422Z,102415.78
2022-11-14T05:58:08.035Z,102423.34
2022-11-14T06:01:28.865Z,102422.38
2022-11-14T06:04:49.513Z,102413.16
2022-11-14T06:08:10.376Z,102417.50
2022-11-14T06:11:30.968Z,102418.28
2022-11-14T06:14:51.296Z,102413.50
2022-11-14T06:18:11.946Z,102426.06
2022-11-14T06:21:32.442Z,102415.22
2022-11-14T06:24:52.855Z,102425.09
2022-11-14T06:28:13.475Z,102422.59
2022-11-14T06:31:34.280Z,102437.56
2022-11-14T06:34:56.116Z,102423.28
2022-11-14T06:38:16.690Z,102435.34
2022-11-14T06:41:37.408Z,102423.66
2022-11-14T06:44:58.024Z,102429.25
2022-11-14T06:48:18.396Z,102431.47
2022-11-14T06:51:38.813Z,102439.16
2022-11-14T06:54:59.082Z,102416.44
2022-11-14T06:58:19.569Z,102433.22
2022-11-14T07:01:40.014Z,102422.44
2022-11-14T07:05:00.527Z,102435.50
2022-11-14T07:08:21.436Z,102436.44
2022-11-14T07:11:42.227Z,102436.31
2022-11-14T07:15:03.115Z,102425.25
2022-11-14T07:18:25.280Z,102443.94
2022-11-14T07:21:46.048Z,102416.41
2022-11-14T07:25:07.471Z,102438.06
2022-11-14T07:28:28.556Z,102438.78
2022-11-14T07:31:50.772Z,102429.22
2022-11-14T07:35:11.506Z,102432.13
2022-11-14T07:38:35.908Z,102423.28
2022-11-14T07:41:57.305Z,102435.00
2022-11-14T07:45:20.218Z,102443.50
2022-11-14T07:48:41.321Z,102440.56
2022-11-14T07:55:52.938Z,102442.41
2022-11-14T07:59:13.738Z,102432.91
2022-11-14T08:02:34.175Z,102401.38
2022-11-14T08:06:08.589Z,102436.81
2022-11-14T08:09:29.154Z,102404.94
2022-11-14T08:13:17.572Z,102442.47
2022-11-14T08:16:39.546Z,102435.03
2022-11-14T08:20:00.390Z,102440.47
2022-11-14T08:23:21.228Z,102435.00
2022-11-14T08:26:42.024Z,102431.78
2022-11-14T08:30:02.722Z,102446.28
2022-11-14T08:33:22.911Z,102444.72
2022-11-14T08:36:43.574Z,102437.06
2022-11-14T08:40:04.959Z,102443.88
2022-11-14T08:43:25.760Z,102434.38
2022-11-14T08:46:46.533Z,102423.31
2022-11-14T08:50:07.463Z,102441.84
2022-11-14T08:53:28.681Z,102430.44
2022-11-14T08:56:49.430Z,102423.97
2022-11-14T09:00:10.740Z,102423.47
2022-11-14T09:03:31.492Z,102410.00
2022-11-14T09:06:52.488Z,102402.19
2022-11-14T09:10:13.474Z,102410.34
2022-11-14T09:13:35.302Z,102387.56
2022-11-14T09:16:55.930Z,102397.72
2022-11-14T09:20:16.425Z,102391.28
2022-11-14T09:23:37.033Z,102358.63
2022-11-14T09:26:57.433Z,102391.78
2022-11-14T09:30:18.038Z,102372.75
2022-11-14T09:33:43.397Z,102382.56
2022-11-14T09:37:03.847Z,102385.66
2022-11-14T09:40:24.243Z,102380.88
2022-11-14T09:44:23.339Z,102388.50
2022-11-14T09:47:59.559Z,102383.03
2022-11-14T09:51:22.568Z,102374.63
2022-11-14T09:54:49.348Z,102375.25
2022-11-14T09:58:18.347Z,102370.88
2022-11-14T10:01:41.676Z,102377.25
2022-11-14T10:05:09.325Z,102358.22
2022-11-14T10:08:58.691Z,102370.47
2022-11-14T10:12:44.268Z,102355.69
2022-11-14T10:16:11.246Z,102365.06
2022-11-14T10:19:43.039Z,102362.69
2022-11-14T10:23:19.706Z,102359.94
2022-11-14T10:27:07.341Z,102355.00
2022-11-14T10:30:38.812Z,102318.72
2022-11-14T10:34:09.356Z,102345.25
2022-11-14T10:37:33.400Z,102347.75
2022-11-14T10:40:59.496Z,102323.28
2022-11-14T10:44:28.108Z,102336.16
2022-11-14T10:47:56.236Z,102340.56
2022-11-14T10:51:26.659Z,102347.53
2022-11-14T10:55:15.279Z,102337.19
2022-11-14T10:58:47.958Z,102332.53
2022-11-14T11:02:10.312Z,102329.75
2022-11-14T11:05:31.162Z,102329.25
2022-11-14T11:09:09.867Z,102320.56
2022-11-14T11:12:42.559Z,102322.88
2022-11-14T11:16:05.047Z,102328.09
2022-11-14T11:19:27.807Z,102307.72
2022-11-14T11:22:48.443Z,102312.22
2022-11-14T11:26:25.646Z,102316.44
2022-11-14T11:29:47.282Z,102306.38
2022-11-14T11:33:24.540Z,102304.44
2022-11-14T11:36:50.536Z,102268.69
2022-11-14T11:40:17.746Z,102296.06
2022-11-14T11:43:57.040Z,102290.34
2022-11-14T11:47:19.610Z,102285.59
2022-11-14T11:50:42.475Z,102287.97
2022-11-14T11:54:12.263Z,102265.84
2022-11-14T11:57:37.102Z,102280.00
2022-11-14T12:00:58.278Z,102286.59
2022-11-14T12:04:19.050Z,102284.41
2022-11-14T12:07:51.048Z,102286.59
2022-11-14T12:11:17.252Z,102280.91
2022-11-14T12:15:04.434Z,102283.75
2022-11-14T12:18:57.790Z,102271.97
2022-11-14T12:22:51.725Z,102272.03
2022-11-14T12:26:33.465Z,102268.28
2022-11-14T12:30:19.150Z,102267.09
2022-11-14T12:34:00.395Z,102255.84
2022-11-14T12:37:27.117Z,102249.63
2022-11-14T12:40:54.500Z,102262.28
2022-11-14T12:44:39.065Z,102280.59
2022-11-14T12:48:27.427Z,102277.31
2022-11-14T12:51:51.519Z,102259.06
2022-11-14T12:55:24.624Z,102269.41
2022-11-14T12:59:12.441Z,102270.72
2022-11-14T13:03:08.274Z,102267.06
2022-11-14T13:06:44.005Z,102275.00
2022-11-14T13:10:14.489Z,102271.19
2022-11-14T13:14:20.195Z,102272.16
2022-11-14T13:18:01.656Z,102253.03
2022-11-14T13:21:45.968Z,102268.16
2022-11-14T13:25:06.762Z,102265.91
2022-11-14T13:28:36.499Z,102255.72
2022-11-14T13:31:57.321Z,102258.88
2022-11-14T13:35:49.379Z,102259.00
2022-11-14T13:39:09.993Z,102257.78
2022-11-14T13:42:42.482Z,102253.56
2022-11-14T13:46:34.334Z,102253.56
2022-11-14T13:50:04.571Z,102231.56
2022-11-14T13:53:29.769Z,102213.94
2022-11-14T13:56:57.955Z,102218.25
2022-11-14T14:00:21.033Z,102228.72
2022-11-14T14:04:09.223Z,102229.81
2022-11-14T14:07:55.753Z,102221.50
2022-11-14T14:11:25.483Z,102237.34
2022-11-14T14:15:07.455Z,102234.81
2022-11-14T14:19:03.644Z,102233.50
2022-11-14T14:22:33.654Z,102211.59
2022-11-14T14:26:14.121Z,102241.13
2022-11-14T14:29:34.600Z,102240.69
2022-11-14T14:33:09.635Z,102234.31
2022-11-14T14:36:31.240Z,102229.81
2022-11-14T14:40:02.108Z,102243.03
2022-11-14T14:44:18.592Z,102240.38
2022-11-14T14:48:15.902Z,102236.22
2022-11-14T14:51:38.385Z,102228.28
2022-11-14T14:55:02.621Z,102234.09
2022-11-14T14:58:23.144Z,102235.13
2022-11-14T15:01:44.512Z,102217.53
2022-11-14T15:05:06.474Z,102209.75
2022-11-14T15:08:33.823Z,102221.75
2022-11-14T15:15:42.461Z,102224.94
2022-11-14T15:19:04.755Z,102215.84
2022-11-14T15:22:30.056Z,102215.47
2022-11-14T15:26:09.518Z,102218.91
2022-11-14T15:29:33.579Z,102214.00
2022-11-14T15:33:18.722Z,102219.78
2022-11-14T15:37:19.515Z,102233.13
2022-11-14T15:41:28.760Z,102225.53
2022-11-14T15:44:51.057Z,102226.44
2022-11-14T15:48:19.963Z,102224.56
2022-11-14T15:51:46.471Z,102223.41
2022-11-14T15:55:24.776Z,102208.56
2022-11-14T15:58:50.430Z,102231.28
2022-11-14T16:02:11.148Z,102227.50
2022-11-14T16:05:34.642Z,102206.91
2022-11-14T16:08:56.859Z,102190.75
2022-11-14T16:12:23.284Z,102219.41
2022-11-14T16:15:45.829Z,102198.72
2022-11-14T16:19:07.491Z,102218.41
2022-11-14T16:22:32.509Z,102206.31
2022-11-14T16:25:53.606Z,102205.84
2022-11-14T16:29:21.687Z,102199.25
2022-11-14T16:32:47.214Z,102195.88
2022-11-14T16:36:11.874Z,102211.28
2022-11-14T16:39:32.322Z,102186.28
2022-11-14T16:43:03.499Z,102212.28
2022-11-14T16:46:30.144Z,102174.22
2022-11-14T16:49:52.852Z,102206.31
2022-11-14T16:53:15.726Z,102203.22
2022-11-14T16:56:36.439Z,102214.38
2022-11-14T16:59:58.906Z,102191.84
2022-11-14T17:03:19.659Z,102191.31
2022-11-14T17:06:40.389Z,102196.94
2022-11-14T17:10:08.477Z,102214.34
2022-11-14T17:13:34.026Z,102185.53
2022-11-14T17:17:16.957Z,102139.34
2022-11-14T17:21:08.415Z,102196.44
2022-11-14T17:25:46.711Z,102155.69
2022-11-14T17:29:09.741Z,102198.00
2022-11-14T17:32:56.358Z,102152.41
2022-11-14T17:36:20.299Z,102193.56
2022-11-14T17:39:41.198Z,102166.03
2022-11-14T17:43:01.821Z,102190.03
2022-11-14T17:46:23.701Z,102197.06
2022-11-14T17:49:45.945Z,102206.34
2022-11-14T17:53:06.541Z,102193.31
2022-11-14T17:56:29.619Z,102187.09
2022-11-14T17:59:55.944Z,102198.00
2022-11-14T18:03:22.722Z,102182.19
2022-11-14T18:06:47.467Z,102196.56
2022-11-14T18:10:08.921Z,102183.00
2022-11-14T18:13:29.252Z,102173.97
2022-11-14T18:17:11.591Z,102194.09
2022-11-14T18:20:31.100Z,102182.94
2022-11-14T18:23:54.004Z,102192.47
2022-11-14T18:27:14.569Z,102175.13
2022-11-14T18:30:41.360Z,102192.69
2022-11-14T18:34:03.143Z,102181.84
2022-11-14T18:37:24.119Z,102194.28
2022-11-14T18:40:45.219Z,102178.84
2022-11-14T18:44:05.849Z,102181.97
2022-11-14T18:47:26.740Z,102183.97
2022-11-14T18:50:48.501Z,102171.75
2022-11-14T18:54:14.589Z,102175.59
2022-11-14T18:57:35.255Z,102168.31
2022-11-14T19:00:57.556Z,102155.06
2022-11-14T19:04:19.776Z,102178.66
2022-11-14T19:07:40.297Z,102184.31
2022-11-14T19:11:30.886Z,102176.44
2022-11-14T19:14:51.943Z,102182.97
2022-11-14T19:18:12.727Z,102159.41
2022-11-14T19:21:33.757Z,102188.75
2022-11-14T19:24:54.241Z,102174.91
2022-11-14T19:28:14.941Z,102184.31
2022-11-14T19:31:36.245Z,102195.59
2022-11-14T19:34:56.928Z,102196.75
2022-11-14T19:38:17.573Z,102180.13
2022-11-14T19:41:38.895Z,102182.06
2022-11-14T19:44:59.591Z,102184.69
2022-11-14T19:48:20.232Z,102196.69
2022-11-14T19:51:44.683Z,102176.44
2022-11-14T19:55:05.441Z,102143.53
2022-11-14T19:58:28.055Z,102149.19
2022-11-14T20:01:56.461Z,102174.97
2022-11-14T20:05:17.448Z,102158.69
2022-11-14T20:08:37.743Z,102166.00
2022-11-14T20:11:59.966Z,102158.34
2022-11-14T20:15:20.603Z,102141.88
2022-11-14T20:18:47.101Z,102130.81
2022-11-14T20:22:16.103Z,102148.00
2022-11-14T20:25:41.474Z,102131.88
2022-11-14T20:29:09.282Z,102144.91
2022-11-14T20:32:32.599Z,102141.69
2022-11-14T20:35:55.179Z,102140.31
2022-11-14T20:39:16.371Z,102142.00
2022-11-14T20:42:38.233Z,102144.38
2022-11-14T20:46:04.765Z,102139.59
2022-11-14T20:49:26.726Z,102130.75
2022-11-14T20:52:49.307Z,102129.06
2022-11-14T20:56:12.796Z,102121.25
2022-11-14T20:59:33.627Z,102125.84
2022-11-14T21:03:00.041Z,102120.94
2022-11-14T21:06:20.877Z,102124.88
2022-11-14T21:09:41.492Z,102134.47
2022-11-14T21:13:25.777Z,102125.66
2022-11-14T21:16:46.562Z,102128.00
2022-11-14T21:20:08.174Z,102098.22
2022-11-14T21:23:29.132Z,102114.34
2022-11-14T21:26:49.598Z,102102.47
2022-11-14T21:30:10.302Z,102104.56
2022-11-14T21:33:32.867Z,102094.91
2022-11-14T21:36:53.683Z,102119.06
2022-11-14T21:40:14.025Z,102100.78
2022-11-14T21:43:35.121Z,102109.28
2022-11-14T21:46:55.610Z,102093.31
2022-11-14T21:50:18.223Z,102117.88
2022-11-14T21:53:40.413Z,102094.78
2022-11-14T21:57:04.327Z,102111.94
2022-11-14T22:00:29.273Z,102094.91
2022-11-14T22:04:08.287Z,102088.56
2022-11-14T22:07:30.804Z,102077.22
2022-11-14T22:10:51.703Z,102090.91
2022-11-14T22:14:13.482Z,102082.41
2022-11-14T22:17:33.980Z,102070.00
2022-11-14T22:20:59.890Z,102061.31
2022-11-14T22:24:20.674Z,102066.53
2022-11-14T22:27:41.238Z,102055.69
2022-11-14T22:31:19.460Z,102041.81
2022-11-14T22:34:39.971Z,102061.34
2022-11-14T22:38:04.968Z,102057.66
2022-11-14T22:41:32.230Z,102039.88
2022-11-14T22:44:53.606Z,102047.34
2022-11-14T22:48:14.011Z,102047.91
2022-11-14T22:51:36.649Z,102034.47
2022-11-14T22:54:57.340Z,102041.41
2022-11-14T22:58:18.057Z,102033.53
2022-11-14T23:01:38.729Z,102015.28
2022-11-14T23:04:59.378Z,102042.47
2022-11-14T23:08:20.911Z,102026.00
2022-11-14T23:11:41.469Z,102018.53
2022-11-14T23:15:02.346Z,102000.97
2022-11-14T23:18:24.169Z,102009.88
2022-11-14T23:21:45.426Z,102024.63
2022-11-14T23:25:06.433Z,102005.78
2022-11-14T23:28:31.240Z,101994.53
2022-11-14T23:31:53.431Z,102019.50
2022-11-14T23:35:14.190Z,102005.59
2022-11-14T23:38:35.017Z,102001.25
2022-11-14T23:41:55.711Z,102011.19
2022-11-14T23:45:17.943Z,102002.09
2022-11-14T23:48:40.359Z,102014.47
2022-11-14T23:52:01.971Z,101994.84
2022-11-14T23:55:22.654Z,101999.09
2022-11-14T23:58:43.223Z,102001.09
